createdAt,value
2019-01-31T00:00:17.590Z,10.43
2019-01-31T00:03:25.082Z,10.07
2019-01-31T00:06:07.436Z,8.63
2019-01-31T00:09:29.898Z,11.23
2019-01-31T00:12:07.988Z,11.07
2019-01-31T00:15:04.613Z,10.00
2019-01-31T00:18:17.874Z,9.57
2019-01-31T00:21:05.749Z,10.23
2019-01-31T00:24:24.427Z,11.60
2019-01-31T00:27:43.518Z,9.20
2019-01-31T00:30:44.740Z,9.10
2019-01-31T00:33:37.282Z,9.87
2019-01-31T00:36:30.310Z,12.63
2019-01-31T00:39:17.852Z,13.83
2019-01-31T00:42:18.113Z,13.70
2019-01-31T00:45:37.831Z,12.63
2019-01-31T00:48:41.919Z,13.90
2019-01-31T00:51:46.821Z,11.90
2019-01-31T00:54:51.540Z,11.57
2019-01-31T00:57:53.143Z,10.37
2019-01-31T01:00:42.042Z,11.17
2019-01-31T01:03:43.083Z,12.27
2019-01-31T01:06:27.084Z,15.07
2019-01-31T01:09:34.690Z,12.20
2019-01-31T01:12:41.361Z,26.90
2019-01-31T01:15:56.641Z,18.70
2019-01-31T01:18:38.644Z,14.77
2019-01-31T01:21:44.649Z,17.03
2019-01-31T01:24:49.989Z,12.03
2019-01-31T01:28:10.323Z,11.10
2019-01-31T01:31:17.915Z,13.17
2019-01-31T01:34:06.310Z,9.67
2019-01-31T01:36:48.204Z,10.33
2019-01-31T01:40:01.500Z,9.50
2019-01-31T01:43:13.411Z,11.73
2019-01-31T01:46:21.884Z,8.30
2019-01-31T01:49:19.290Z,7.93
2019-01-31T01:52:20.343Z,7.40
2019-01-31T01:55:12.851Z,8.57
2019-01-31T02:01:49.660Z,7.63
2019-01-31T02:04:53.105Z,9.13
2019-01-31T02:08:02.696Z,8.33
2019-01-31T02:10:57.066Z,9.53
2019-01-31T02:13:44.910Z,9.50
2019-01-31T02:16:38.315Z,9.00
2019-01-31T02:19:38.162Z,7.63
2019-01-31T02:22:27.175Z,13.37
2019-01-31T02:25:06.298Z,7.60
2019-01-31T02:28:24.902Z,9.77
2019-01-31T02:31:31.247Z,12.00
2019-01-31T02:34:37.456Z,10.07
2019-01-31T02:37:16.147Z,9.90
2019-01-31T02:40:24.939Z,8.90
2019-01-31T02:43:13.292Z,10.43
2019-01-31T02:46:18.393Z,10.80
2019-01-31T02:49:09.438Z,12.03
2019-01-31T02:52:18.667Z,9.23
2019-01-31T02:55:08.224Z,9.93
2019-01-31T02:58:27.531Z,10.00
2019-01-31T03:01:26.249Z,9.43
2019-01-31T03:04:35.162Z,8.73
2019-01-31T03:07:28.989Z,8.70
2019-01-31T03:10:17.439Z,9.03
2019-01-31T03:13:23.278Z,8.83
2019-01-31T03:16:33.027Z,9.30
2019-01-31T03:19:44.378Z,9.47
2019-01-31T03:22:41.221Z,8.80
2019-01-31T03:25:41.088Z,9.87
2019-01-31T03:28:47.136Z,12.50
2019-01-31T03:31:53.911Z,12.10
2019-01-31T03:34:51.354Z,12.43
2019-01-31T03:37:53.705Z,12.10
2019-01-31T03:40:51.151Z,11.13
2019-01-31T03:43:38.578Z,12.23
2019-01-31T03:46:40.341Z,9.90
2019-01-31T03:49:20.785Z,10.37
2019-01-31T03:52:10.950Z,9.07
2019-01-31T03:55:32.440Z,12.40
2019-01-31T03:58:24.808Z,11.00
2019-01-31T04:01:43.203Z,10.47
2019-01-31T04:04:23.990Z,9.83
2019-01-31T04:06:53.394Z,12.70
2019-01-31T04:09:22.778Z,13.33
2019-01-31T04:11:53.081Z,12.67
2019-01-31T04:14:22.502Z,9.63
2019-01-31T04:16:51.996Z,11.20
2019-01-31T04:19:28.190Z,12.30
2019-01-31T04:22:12.947Z,13.10
2019-01-31T04:24:49.348Z,14.40
2019-01-31T04:27:22.875Z,11.43
2019-01-31T04:29:53.874Z,10.97
2019-01-31T04:32:28.864Z,12.87
2019-01-31T04:35:02.598Z,12.13
2019-01-31T04:37:34.647Z,14.50
2019-01-31T04:40:06.121Z,12.53
2019-01-31T04:42:37.301Z,16.00
2019-01-31T04:45:14.216Z,14.40
2019-01-31T04:47:56.260Z,15.17
2019-01-31T04:50:25.410Z,14.73
2019-01-31T04:53:00.595Z,16.93
2019-01-31T04:55:31.127Z,13.17
2019-01-31T04:58:10.624Z,15.57
2019-01-31T05:00:41.438Z,16.73
2019-01-31T05:03:27.714Z,14.87
2019-01-31T05:06:02.740Z,15.17
2019-01-31T05:08:36.037Z,15.50
2019-01-31T05:11:09.165Z,14.70
2019-01-31T05:13:41.472Z,15.03
2019-01-31T05:16:10.907Z,15.90
2019-01-31T05:18:40.268Z,14.67
2019-01-31T05:21:09.766Z,13.87
2019-01-31T05:23:39.580Z,13.53
2019-01-31T05:26:08.984Z,14.20
2019-01-31T05:28:38.525Z,16.43
2019-01-31T05:31:07.937Z,13.30
2019-01-31T05:33:38.441Z,14.63
2019-01-31T05:36:07.766Z,14.77
2019-01-31T05:38:37.173Z,16.93
2019-01-31T05:41:08.960Z,13.07
2019-01-31T05:43:39.439Z,16.30
2019-01-31T05:46:19.283Z,17.43
2019-01-31T05:48:48.688Z,20.23
2019-01-31T05:51:18.085Z,16.27
2019-01-31T05:53:47.478Z,14.73
2019-01-31T05:56:16.884Z,15.60
2019-01-31T05:58:48.309Z,16.27
2019-01-31T06:01:17.683Z,16.40
2019-01-31T06:03:47.043Z,18.77
2019-01-31T06:06:16.399Z,19.30
2019-01-31T06:08:45.787Z,18.37
2019-01-31T06:11:15.307Z,18.23
2019-01-31T06:13:44.712Z,24.90
2019-01-31T06:16:14.067Z,21.30
2019-01-31T06:18:43.531Z,20.97
2019-01-31T06:21:12.924Z,20.73
2019-01-31T06:23:42.343Z,20.00
2019-01-31T06:26:11.710Z,19.47
2019-01-31T06:28:41.098Z,20.57
2019-01-31T06:31:10.511Z,20.43
2019-01-31T06:33:39.946Z,22.63
2019-01-31T06:36:09.318Z,23.53
2019-01-31T06:38:38.676Z,19.93
2019-01-31T06:41:17.983Z,22.63
2019-01-31T06:43:39.118Z,22.67
2019-01-31T06:46:08.493Z,21.50
2019-01-31T06:48:37.851Z,23.00
2019-01-31T06:51:07.303Z,21.27
2019-01-31T06:53:36.638Z,21.00
2019-01-31T06:56:06.019Z,20.40
2019-01-31T06:58:35.422Z,21.07
2019-01-31T07:01:04.878Z,22.93
2019-01-31T07:03:34.284Z,20.33
2019-01-31T07:06:03.671Z,20.10
2019-01-31T07:08:33.052Z,21.23
2019-01-31T07:11:02.504Z,22.67
2019-01-31T07:13:33.871Z,27.03
2019-01-31T07:16:02.978Z,29.73
2019-01-31T07:18:32.371Z,34.03
2019-01-31T07:21:01.771Z,27.83
2019-01-31T07:23:31.143Z,26.60
2019-01-31T07:26:00.500Z,31.63
2019-01-31T07:28:29.855Z,29.83
2019-01-31T07:30:59.224Z,32.67
2019-01-31T07:33:28.605Z,37.87
2019-01-31T07:35:57.995Z,47.37
2019-01-31T07:38:27.417Z,49.10
2019-01-31T07:40:56.973Z,45.97
2019-01-31T07:43:28.780Z,47.57
2019-01-31T07:45:58.187Z,46.17
2019-01-31T07:48:27.559Z,45.73
2019-01-31T07:50:56.911Z,44.40
2019-01-31T07:53:26.312Z,44.20
2019-01-31T07:55:55.701Z,46.83
2019-01-31T07:58:25.046Z,45.83
2019-01-31T08:00:54.487Z,46.03
2019-01-31T08:03:23.958Z,49.47
2019-01-31T08:05:53.394Z,43.00
2019-01-31T08:08:22.764Z,47.23
2019-01-31T08:10:52.168Z,41.23
2019-01-31T08:13:21.568Z,44.50
2019-01-31T08:15:51.009Z,48.77
2019-01-31T08:18:20.330Z,42.07
2019-01-31T08:20:49.678Z,39.40
2019-01-31T08:23:19.054Z,38.20
2019-01-31T08:25:48.454Z,33.03
2019-01-31T08:28:17.814Z,31.70
2019-01-31T08:30:47.163Z,38.70
2019-01-31T08:33:16.567Z,35.90
2019-01-31T08:35:52.250Z,30.63
2019-01-31T08:38:23.696Z,33.23
2019-01-31T08:40:53.050Z,28.90
2019-01-31T08:43:22.422Z,28.00
2019-01-31T08:45:51.893Z,26.00
2019-01-31T08:48:21.255Z,26.93
2019-01-31T08:50:50.641Z,19.30
2019-01-31T08:53:20.030Z,14.60
2019-01-31T08:55:58.799Z,15.37
2019-01-31T08:58:28.244Z,12.13
2019-01-31T09:00:57.953Z,16.77
2019-01-31T09:03:27.274Z,16.30
2019-01-31T09:05:56.680Z,16.03
2019-01-31T09:08:26.051Z,18.97
2019-01-31T09:10:55.540Z,18.63
2019-01-31T09:13:27.175Z,18.57
2019-01-31T09:15:56.536Z,20.37
2019-01-31T09:18:25.937Z,18.00
2019-01-31T09:20:59.917Z,19.73
2019-01-31T09:24:19.219Z,24.77
2019-01-31T09:27:37.629Z,25.87
2019-01-31T09:31:02.956Z,31.93
2019-01-31T09:33:45.875Z,25.93
2019-01-31T09:36:45.266Z,26.27
2019-01-31T09:39:37.251Z,22.57
2019-01-31T09:42:27.046Z,24.80
2019-01-31T09:45:28.386Z,23.90
2019-01-31T09:48:34.417Z,22.53
2019-01-31T09:51:40.512Z,24.70
2019-01-31T09:54:53.175Z,22.93
2019-01-31T09:57:53.724Z,22.63
2019-01-31T10:01:23.393Z,26.50
2019-01-31T10:04:17.330Z,27.03
2019-01-31T10:07:17.662Z,23.47
2019-01-31T10:10:28.972Z,24.73
2019-01-31T10:13:53.806Z,21.30
2019-01-31T10:17:00.255Z,23.43
2019-01-31T10:19:45.703Z,21.63
2019-01-31T10:22:44.845Z,21.43
2019-01-31T10:25:41.811Z,19.40
2019-01-31T10:28:52.486Z,20.10
2019-01-31T10:31:53.698Z,20.87
2019-01-31T10:34:51.430Z,22.23
2019-01-31T10:37:57.993Z,20.27
2019-01-31T10:41:14.117Z,19.90
2019-01-31T10:44:39.635Z,25.87
2019-01-31T10:48:11.310Z,28.53
2019-01-31T10:51:17.861Z,23.87
2019-01-31T10:53:53.664Z,24.77
2019-01-31T10:57:15.878Z,24.03
2019-01-31T11:00:21.372Z,22.67
2019-01-31T11:03:32.182Z,33.00
2019-01-31T11:06:46.022Z,25.87
2019-01-31T11:09:41.140Z,27.60
2019-01-31T11:13:00.286Z,23.97
2019-01-31T11:16:13.211Z,23.93
2019-01-31T11:19:12.547Z,27.47
2019-01-31T11:22:22.856Z,21.97
2019-01-31T11:25:28.260Z,23.93
2019-01-31T11:28:39.403Z,23.77
2019-01-31T11:31:56.009Z,18.97
2019-01-31T11:34:49.739Z,17.47
2019-01-31T11:37:41.909Z,18.80
2019-01-31T11:40:52.233Z,22.47
2019-01-31T11:43:54.453Z,22.30
2019-01-31T11:47:04.683Z,20.40
2019-01-31T11:50:15.103Z,18.97
2019-01-31T11:53:25.280Z,22.87
2019-01-31T11:56:35.652Z,27.23
2019-01-31T11:59:07.578Z,21.13
2019-01-31T12:01:37.706Z,21.77
2019-01-31T12:04:09.967Z,25.43
2019-01-31T12:06:39.484Z,25.70
2019-01-31T12:09:29.264Z,22.33
2019-01-31T12:11:58.661Z,24.23
2019-01-31T12:14:28.044Z,23.33
2019-01-31T12:16:57.524Z,22.60
2019-01-31T12:19:27.003Z,23.47
2019-01-31T12:21:56.591Z,24.10
2019-01-31T12:24:25.966Z,25.13
2019-01-31T12:26:55.326Z,23.00
2019-01-31T12:29:24.649Z,23.87
2019-01-31T12:31:53.999Z,23.03
2019-01-31T12:34:23.371Z,24.30
2019-01-31T12:36:52.781Z,24.97
2019-01-31T12:39:22.147Z,29.27
2019-01-31T12:41:51.604Z,27.57
2019-01-31T12:44:20.984Z,23.63
2019-01-31T12:46:50.341Z,26.77
2019-01-31T12:49:19.726Z,22.77
2019-01-31T12:51:49.189Z,24.47
2019-01-31T12:54:18.676Z,25.33
2019-01-31T12:56:48.134Z,23.73
2019-01-31T12:59:17.509Z,21.03
2019-01-31T13:01:46.906Z,26.80
2019-01-31T13:04:16.294Z,22.70
2019-01-31T13:06:45.747Z,21.10
2019-01-31T13:09:15.214Z,23.83
2019-01-31T13:11:44.607Z,24.90
2019-01-31T13:14:14.002Z,23.40
2019-01-31T13:16:43.566Z,21.07
2019-01-31T13:19:13.037Z,22.40
2019-01-31T13:21:42.627Z,23.13
2019-01-31T13:24:12.053Z,24.83
2019-01-31T13:26:41.423Z,22.73
2019-01-31T13:29:10.821Z,25.53
2019-01-31T13:31:40.236Z,27.23
2019-01-31T13:34:09.602Z,31.97
2019-01-31T13:36:38.961Z,31.47
2019-01-31T13:39:14.269Z,29.90
2019-01-31T13:41:43.754Z,32.20
2019-01-31T13:44:13.091Z,31.40
2019-01-31T13:46:42.450Z,36.10
2019-01-31T13:49:11.853Z,32.30
2019-01-31T13:51:41.249Z,29.40
2019-01-31T13:54:12.445Z,25.70
2019-01-31T13:56:45.679Z,25.63
2019-01-31T13:59:13.339Z,21.87
2019-01-31T14:01:42.719Z,27.37
2019-01-31T14:04:12.436Z,32.17
2019-01-31T14:06:41.855Z,33.80
2019-01-31T14:09:12.588Z,33.87
2019-01-31T14:11:41.935Z,38.17
2019-01-31T14:14:11.288Z,33.77
2019-01-31T14:16:47.570Z,29.17
2019-01-31T14:19:11.820Z,33.50
2019-01-31T14:21:44.005Z,34.37
2019-01-31T14:24:12.311Z,36.20
2019-01-31T14:26:41.843Z,38.70
2019-01-31T14:29:11.310Z,38.60
2019-01-31T14:31:40.837Z,37.50
2019-01-31T14:34:10.231Z,43.93
2019-01-31T14:36:39.848Z,41.43
2019-01-31T14:39:10.375Z,44.43
2019-01-31T14:41:39.760Z,43.27
2019-01-31T14:44:19.879Z,43.50
2019-01-31T14:46:40.624Z,45.10
2019-01-31T14:49:10.050Z,48.63
2019-01-31T14:51:39.447Z,46.67
2019-01-31T14:54:08.808Z,46.93
2019-01-31T14:56:38.175Z,48.83
2019-01-31T14:59:07.595Z,33.90
2019-01-31T15:01:37.049Z,31.23
2019-01-31T15:04:06.561Z,38.47
2019-01-31T15:06:36.045Z,43.73
2019-01-31T15:09:08.850Z,33.87
2019-01-31T15:11:38.419Z,19.13
2019-01-31T15:14:07.963Z,25.20
2019-01-31T15:16:37.346Z,25.43
2019-01-31T15:19:06.730Z,20.60
2019-01-31T15:21:36.128Z,26.10
2019-01-31T15:24:05.773Z,13.53
2019-01-31T15:26:35.135Z,7.87
2019-01-31T15:29:05.019Z,3.23
2019-01-31T15:31:35.834Z,1.10
2019-01-31T15:34:05.525Z,1.80
2019-01-31T15:36:34.912Z,1.40
2019-01-31T15:39:07.002Z,1.23
2019-01-31T15:41:36.395Z,1.47
2019-01-31T15:44:07.547Z,1.37
2019-01-31T15:46:40.188Z,2.27
2019-01-31T15:49:09.667Z,1.63
2019-01-31T15:51:39.186Z,2.90
2019-01-31T15:54:08.743Z,3.10
2019-01-31T15:56:38.229Z,1.87
2019-01-31T15:59:08.954Z,2.97
2019-01-31T16:01:38.298Z,2.70
2019-01-31T16:04:07.793Z,3.00
2019-01-31T16:06:37.209Z,3.27
2019-01-31T16:09:09.383Z,2.53
2019-01-31T16:11:38.799Z,2.70
2019-01-31T16:14:08.291Z,3.57
2019-01-31T16:16:37.751Z,3.27
2019-01-31T16:19:07.123Z,3.00
2019-01-31T16:21:36.508Z,2.77
2019-01-31T16:24:06.087Z,3.60
2019-01-31T16:26:36.309Z,2.63
2019-01-31T16:29:05.926Z,3.27
2019-01-31T16:31:38.452Z,2.30
2019-01-31T16:34:07.770Z,3.13
2019-01-31T16:36:37.147Z,2.47
2019-01-31T16:39:09.770Z,3.00
2019-01-31T16:41:39.256Z,3.77
2019-01-31T16:44:10.247Z,4.10
2019-01-31T16:46:39.695Z,6.07
2019-01-31T16:49:09.075Z,4.30
2019-01-31T16:51:38.580Z,6.10
2019-01-31T16:54:07.877Z,3.77
2019-01-31T16:56:37.322Z,4.90
2019-01-31T16:59:06.679Z,4.97
2019-01-31T17:01:36.137Z,5.53
2019-01-31T17:04:06.015Z,3.23
2019-01-31T17:06:35.388Z,3.90
2019-01-31T17:09:08.064Z,3.00
2019-01-31T17:11:40.299Z,6.13
2019-01-31T17:14:09.699Z,5.67
2019-01-31T17:16:39.050Z,9.53
2019-01-31T17:19:08.482Z,8.90
2019-01-31T17:21:38.127Z,9.03
2019-01-31T17:24:07.504Z,8.00
2019-01-31T17:26:36.874Z,4.53
2019-01-31T17:29:06.456Z,3.10
2019-01-31T17:31:36.106Z,4.30
2019-01-31T17:34:05.512Z,4.10
2019-01-31T17:36:34.983Z,4.00
2019-01-31T17:39:06.908Z,4.03
2019-01-31T17:41:36.295Z,5.63
2019-01-31T17:44:05.841Z,6.27
2019-01-31T17:46:35.209Z,4.40
2019-01-31T17:49:05.469Z,6.20
2019-01-31T17:51:34.959Z,9.23
2019-01-31T17:54:04.764Z,11.87
2019-01-31T17:56:34.093Z,14.30
2019-01-31T17:59:03.460Z,16.60
2019-01-31T18:01:32.857Z,13.40
2019-01-31T18:04:02.306Z,12.37
2019-01-31T18:06:31.709Z,15.67
2019-01-31T18:09:01.106Z,15.03
2019-01-31T18:11:30.464Z,11.20
2019-01-31T18:13:59.904Z,12.67
2019-01-31T18:16:29.307Z,10.27
2019-01-31T18:18:58.694Z,7.07
2019-01-31T18:21:28.171Z,6.20
2019-01-31T18:23:57.548Z,7.00
2019-01-31T18:26:26.955Z,6.70
2019-01-31T18:28:56.425Z,6.17
2019-01-31T18:31:25.774Z,5.20
2019-01-31T18:33:55.287Z,4.67
2019-01-31T18:36:24.695Z,4.93
2019-01-31T18:38:54.121Z,3.90
2019-01-31T18:41:23.560Z,4.53
2019-01-31T18:43:52.965Z,5.77
2019-01-31T18:46:22.352Z,5.67
2019-01-31T18:48:51.704Z,3.60
2019-01-31T18:51:21.179Z,5.27
2019-01-31T18:53:50.586Z,6.50
2019-01-31T18:56:20.025Z,7.70
2019-01-31T18:58:49.820Z,10.20
2019-01-31T19:01:19.279Z,10.70
2019-01-31T19:03:48.669Z,9.40
2019-01-31T19:06:18.045Z,6.80
2019-01-31T19:08:47.463Z,7.77
2019-01-31T19:11:16.881Z,3.20
2019-01-31T19:13:46.262Z,5.73
2019-01-31T19:16:15.708Z,4.27
2019-01-31T19:18:45.271Z,3.27
2019-01-31T19:21:14.683Z,3.83
2019-01-31T19:23:44.127Z,3.37
2019-01-31T19:26:13.624Z,4.00
2019-01-31T19:28:43.049Z,5.20
2019-01-31T19:31:12.439Z,7.73
2019-01-31T19:33:41.886Z,10.13
2019-01-31T19:36:11.218Z,10.00
2019-01-31T19:38:40.798Z,13.17
2019-01-31T19:41:10.190Z,12.83
2019-01-31T19:43:39.657Z,13.83
2019-01-31T19:46:16.071Z,12.43
2019-01-31T19:48:40.306Z,15.13
2019-01-31T19:51:10.120Z,13.23
2019-01-31T19:53:39.533Z,15.97
2019-01-31T19:56:08.947Z,18.47
2019-01-31T19:58:38.396Z,18.70
2019-01-31T20:01:08.188Z,17.00
2019-01-31T20:03:37.551Z,15.43
2019-01-31T20:06:06.982Z,18.23
2019-01-31T20:08:36.492Z,14.17
2019-01-31T20:11:05.980Z,10.10
2019-01-31T20:13:35.418Z,12.80
2019-01-31T20:16:05.164Z,11.97
2019-01-31T20:18:37.842Z,12.03
2019-01-31T20:21:07.364Z,13.00
2019-01-31T20:23:36.802Z,11.97
2019-01-31T20:26:06.219Z,11.23
2019-01-31T20:28:35.596Z,16.63
2019-01-31T20:31:05.179Z,12.13
2019-01-31T20:33:34.560Z,11.67
2019-01-31T20:36:04.053Z,18.93
2019-01-31T20:38:33.520Z,14.63
2019-01-31T20:41:02.917Z,15.77
2019-01-31T20:43:32.315Z,20.87
2019-01-31T20:46:01.723Z,19.33
2019-01-31T20:48:31.130Z,19.23
2019-01-31T20:51:00.496Z,20.33
2019-01-31T20:53:30.065Z,19.60
2019-01-31T20:55:59.766Z,19.83
2019-01-31T20:58:29.322Z,21.80
2019-01-31T21:00:58.732Z,19.93
2019-01-31T21:03:28.272Z,21.53
2019-01-31T21:05:57.803Z,21.03
2019-01-31T21:08:27.193Z,22.23
2019-01-31T21:10:56.580Z,18.53
2019-01-31T21:13:26.153Z,21.17
2019-01-31T21:15:55.862Z,22.03
2019-01-31T21:18:25.302Z,23.97
2019-01-31T21:20:55.364Z,24.93
2019-01-31T21:23:27.502Z,26.27
2019-01-31T21:25:57.344Z,25.07
2019-01-31T21:28:26.896Z,23.90
2019-01-31T21:30:56.473Z,25.67
2019-01-31T21:33:25.968Z,21.60
2019-01-31T21:35:55.418Z,23.87
2019-01-31T21:38:28.200Z,24.57
2019-01-31T21:41:01.332Z,16.30
2019-01-31T21:43:30.869Z,19.93
2019-01-31T21:46:00.390Z,17.60
2019-01-31T21:48:30.496Z,15.83
2019-01-31T21:51:00.109Z,11.17
2019-01-31T21:53:36.469Z,12.20
2019-01-31T21:56:02.881Z,9.63
2019-01-31T21:58:32.279Z,6.13
2019-01-31T22:01:04.758Z,8.97
2019-01-31T22:03:34.325Z,6.83
2019-01-31T22:06:03.777Z,8.60
2019-01-31T22:08:33.244Z,7.67
2019-01-31T22:11:02.786Z,7.80
2019-01-31T22:13:32.234Z,8.00
2019-01-31T22:16:01.594Z,8.40
2019-01-31T22:18:33.128Z,9.23
2019-01-31T22:21:05.274Z,9.03
2019-01-31T22:23:34.681Z,7.87
2019-01-31T22:26:04.088Z,8.70
2019-01-31T22:28:33.469Z,5.23
2019-01-31T22:31:02.819Z,7.50
2019-01-31T22:33:32.205Z,6.80
2019-01-31T22:36:02.267Z,10.10
2019-01-31T22:38:31.650Z,9.17
2019-01-31T22:41:03.302Z,10.50
2019-01-31T22:43:32.690Z,10.93
2019-01-31T22:46:02.109Z,11.43
2019-01-31T22:48:31.507Z,10.37
2019-01-31T22:51:03.405Z,15.27
2019-01-31T22:53:32.798Z,16.13
2019-01-31T22:56:02.210Z,14.67
2019-01-31T22:58:31.593Z,12.87
2019-01-31T23:01:33.575Z,12.60
2019-01-31T23:04:03.004Z,14.90
2019-01-31T23:06:32.384Z,15.53
2019-01-31T23:09:01.784Z,16.73
2019-01-31T23:11:31.330Z,16.33
2019-01-31T23:14:00.751Z,19.97
2019-01-31T23:16:30.134Z,24.17
2019-01-31T23:18:59.483Z,15.53
2019-01-31T23:21:28.894Z,18.17
2019-01-31T23:23:58.307Z,16.50
2019-01-31T23:26:27.701Z,13.80
2019-01-31T23:28:57.114Z,12.60
2019-01-31T23:31:26.645Z,12.07
2019-01-31T23:33:56.039Z,11.00
2019-01-31T23:36:25.474Z,12.47
2019-01-31T23:38:54.910Z,12.43
2019-01-31T23:41:24.343Z,13.37
2019-01-31T23:43:53.815Z,11.70
2019-01-31T23:46:23.177Z,11.57
2019-01-31T23:48:52.573Z,11.33
2019-01-31T23:51:22.004Z,10.60
2019-01-31T23:53:51.367Z,9.00
2019-01-31T23:56:20.881Z,9.77
2019-01-31T23:58:50.307Z,7.53
